Date,TemperatureHighF,TemperatureAvgF,TemperatureLowF,DewpointHighF,DewpointAvgF,DewpointLowF,HumidityHigh,HumidityAvg,HumidityLow,PressureMaxIn,PressureMinIn,WindSpeedMaxMPH,WindSpeedAvgMPH,GustSpeedMaxMPH,PrecipitationSumIn
2013-9-1,82.5,74.4,68.1,72.2,69.4,67.2,98,85,64,29.67,29.55,8,1,11,0.00
2013-9-2,70.2,69.0,67.9,69.6,68.1,66.5,99,97,93,29.65,29.51,9,1,9,0.76
2013-9-3,78.8,70.9,65.4,68.8,66.6,62.6,99,87,65,29.55,29.48,10,1,10,0.01
2013-9-8,61.2,50.5,42.2,44.1,42.3,40.0,93,75,50,29.86,29.67,5,1,10,0.00
2013-9-9,68.1,51.1,33.4,49.9,42.3,32.6,97,76,40,30.00,29.86,6,2,11,0.00
2013-9-10,71.6,58.9,45.8,67.6,57.3,45.0,98,94,86,29.92,29.80,4,1,10,0.12
2013-9-11,91.4,77.5,64.9,77.0,71.1,64.3,99,83,54,29.83,29.68,8,2,14,0.32
2013-9-12,79.4,69.0,63.6,73.7,67.3,63.0,99,94,77,29.71,29.45,7,1,10,1.36
2013-9-13,65.4,64.8,64.3,64.8,64.0,63.4,98,98,97,29.46,29.39,3,1,10,0.11
2013-9-15,68.3,60.9,52.4,55.1,50.4,43.5,97,71,45,29.92,29.79,13,2,13,0.01
2013-9-16,64.5,55.5,43.7,55.6,50.2,37.6,98,83,52,29.98,29.77,16,1,16,0.00
2013-9-17,63.0,63.0,63.0,45.6,45.6,45.6,53,53,53,30.09,30.09,1,1,1,0.00
2013-9-18,72.3,57.2,33.3,56.5,45.5,32.8,98,70,34,30.08,29.89,10,1,10,0.00
2013-9-19,75.3,56.0,37.1,60.8,48.2,36.6,98,79,45,29.92,29.80,11,1,11,0.00
2013-9-20,76.2,57.6,40.3,58.7,50.0,39.8,98,80,46,29.89,29.79,12,1,12,0.00
2013-9-21,70.8,57.3,42.1,62.7,53.9,41.3,99,89,68,29.80,29.51,16,2,16,0.00
2013-9-22,70.0,61.9,48.8,64.6,55.5,42.1,97,81,54,29.58,29.37,16,3,16,0.57
2013-9-23,58.1,48.7,35.3,44.6,40.7,34.3,96,75,57,29.76,29.57,20,2,20,0.00
2013-9-24,62.0,46.3,30.7,45.3,39.6,30.0,98,80,51,29.75,29.60,23,2,23,0.00
2013-9-25,59.9,48.3,35.7,49.5,43.6,34.8,98,85,63,29.78,29.65,12,1,12,0.00
2013-9-26,66.3,52.1,37.6,54.7,46.2,36.8,98,83,54,29.93,29.78,11,1,11,0.00
2013-9-27,68.8,56.4,43.7,57.8,50.7,42.9,97,83,57,30.05,29.92,11,1,11,0.00
2013-9-28,71.5,54.1,40.0,55.8,47.6,39.4,99,82,47,30.13,30.05,11,1,11,0.00
2013-9-29,69.0,50.1,36.3,54.3,44.7,35.8,98,84,51,30.06,29.91,11,1,11,0.00
2013-9-30,68.0,50.0,35.7,55.5,45.1,35.2,98,86,48,29.92,29.75,11,1,11,0.01